Time;durP1;ratioP1;P1;durP2;ratioP2;P2;SDS_P1;SDS_P2;PMS_P1;PMS_P2;Temp;Humidity;BMP_temperature;BMP_pressure;BME280_temperature;BME280_humidity;BME280_pressure;Samples;Min_cycle;Max_cycle;Signal;HPM_P1;HPM_P2
2022/10/12 00:02:03;;;;;;;;;;;8.70;53.80;;;;;;4974670;28;19913;-86
2022/10/12 00:04:29;;;;;;;;;;;8.70;53.80;;;;;;4991252;28;20000;-86
2022/10/12 00:06:54;;;;;;;;;;;8.70;53.80;;;;;;4975343;28;19917;-87
2022/10/12 00:09:20;;;;;;;;;;;8.70;53.90;;;;;;4991797;28;19917;-87
2022/10/12 00:11:46;;;;;;;;;;;8.60;53.90;;;;;;4991339;28;19980;-85
2022/10/12 00:14:11;;;;;;;;;;;8.60;53.90;;;;;;4973215;28;20368;-87
2022/10/12 00:16:37;;;;;;;;;;;8.50;54.10;;;;;;4973694;28;19922;-87
2022/10/12 00:19:02;;;;;;;;;;;8.50;54.10;;;;;;4976436;28;19917;-85
2022/10/12 00:21:28;;;;;;;;;;;8.40;54.30;;;;;;4992620;28;19973;-87
2022/10/12 00:23:58;;;;;;;;;;;8.50;54.30;;;;;;4993856;28;19913;-88
2022/10/12 00:26:24;;;;;;;;;;;8.40;54.30;;;;;;4991812;28;20288;-91
2022/10/12 00:28:53;;;;;;;;;;;8.40;54.30;;;;;;4993418;28;19991;-92
2022/10/12 00:31:19;;;;;;;;;;;8.30;54.40;;;;;;4973495;28;19926;-88
2022/10/12 00:33:45;;;;;;;;;;;8.30;54.40;;;;;;4995149;28;19914;-87
2022/10/12 00:36:15;;;;;;;;;;;8.30;54.30;;;;;;4985258;28;20373;-86
2022/10/12 00:38:41;;;;;;;;;;;8.30;54.40;;;;;;4958220;28;19965;-87
2022/10/12 00:41:06;;;;;;;;;;;8.20;54.40;;;;;;4974629;28;19925;-86
2022/10/12 00:43:34;;;;;;;;;;;8.20;54.50;;;;;;4977993;28;20312;-86
2022/10/12 00:46:04;;;;;;;;;;;8.20;54.50;;;;;;4995468;28;20319;-89
2022/10/12 00:48:30;;;;;;;;;;;8.20;54.60;;;;;;4974870;28;20041;-86
2022/10/12 00:50:57;;;;;;;;;;;8.20;54.60;;;;;;4993857;28;19963;-91
2022/10/12 00:53:25;;;;;;;;;;;8.20;54.70;;;;;;4976299;28;19913;-90
2022/10/12 00:55:52;;;;;;;;;;;8.20;54.70;;;;;;4994920;28;19936;-90
2022/10/12 00:58:18;;;;;;;;;;;8.10;54.70;;;;;;4994253;28;20353;-87
2022/10/12 01:00:43;;;;;;;;;;;8.20;54.80;;;;;;4992901;28;19941;-90
2022/10/12 01:03:10;;;;;;;;;;;8.10;54.90;;;;;;4972338;28;20032;-87
2022/10/12 01:05:38;;;;;;;;;;;8.10;54.80;;;;;;4993421;28;19972;-87
2022/10/12 01:08:03;;;;;;;;;;;8.10;54.90;;;;;;4994307;28;19921;-87
2022/10/12 01:10:29;;;;;;;;;;;8.10;54.90;;;;;;4994921;28;19922;-85
2022/10/12 01:12:54;;;;;;;;;;;8.10;54.80;;;;;;4981230;28;19914;-87
2022/10/12 01:15:22;;;;;;;;;;;8.10;54.90;;;;;;4994564;28;20017;-88
2022/10/12 01:17:56;;;;;;;;;;;8.00;54.90;;;;;;4996899;28;19914;-86
2022/10/12 01:20:40;;;;;;;;;;;8.00;54.90;;;;;;4976569;28;19925;-87
2022/10/12 01:23:06;;;;;;;;;;;8.00;54.90;;;;;;4993378;28;19964;-87
2022/10/12 01:25:43;;;;;;;;;;;8.00;54.80;;;;;;4973500;28;19961;-85
2022/10/12 01:28:22;;;;;;;;;;;7.90;54.80;;;;;;4993206;28;19914;-87
2022/10/12 01:30:50;;;;;;;;;;;7.90;54.80;;;;;;4977948;28;19921;-90
2022/10/12 01:33:19;;;;;;;;;;;7.80;54.90;;;;;;4966256;28;20274;-89
2022/10/12 01:35:45;;;;;;;;;;;7.80;54.90;;;;;;4976140;28;19926;-87
2022/10/12 01:38:25;;;;;;;;;;;7.80;54.90;;;;;;4996119;28;19925;-85
2022/10/12 01:41:14;;;;;;;;;;;7.80;55.00;;;;;;4961228;28;19922;-86
2022/10/12 01:43:41;;;;;;;;;;;7.70;55.10;;;;;;4981463;28;20407;-86
2022/10/12 01:46:15;;;;;;;;;;;7.70;55.10;;;;;;4992447;28;19964;-87
2022/10/12 01:48:42;;;;;;;;;;;7.70;55.10;;;;;;4973607;28;20012;-90
2022/10/12 01:51:08;;;;;;;;;;;7.70;55.20;;;;;;4981028;28;19914;-84
2022/10/12 01:53:33;;;;;;;;;;;7.70;55.30;;;;;;4965425;28;19922;-84
2022/10/12 01:56:15;;;;;;;;;;;7.60;55.60;;;;;;4991998;28;19979;-87
2022/10/12 01:58:43;;;;;;;;;;;7.60;55.80;;;;;;4992118;28;20435;-86
2022/10/12 02:01:12;;;;;;;;;;;7.60;55.70;;;;;;4982274;28;19945;-89
2022/10/12 02:03:47;;;;;;;;;;;7.60;55.70;;;;;;4967478;28;19913;-89
2022/10/12 02:06:18;;;;;;;;;;;7.60;55.60;;;;;;4969481;28;19964;-87
2022/10/12 02:08:53;;;;;;;;;;;7.50;55.60;;;;;;4975153;28;19921;-87
2022/10/12 02:11:20;;;;;;;;;;;7.50;55.60;;;;;;4995454;28;19932;-89
2022/10/12 02:13:54;;;;;;;;;;;7.50;55.50;;;;;;4968277;28;19921;-84
2022/10/12 02:16:27;;;;;;;;;;;7.50;55.50;;;;;;4962064;28;19977;-86
2022/10/12 02:18:54;;;;;;;;;;;7.50;55.60;;;;;;4995348;28;19909;-87
2022/10/12 02:21:22;;;;;;;;;;;7.50;55.70;;;;;;4975646;28;19921;-87
2022/10/12 02:23:49;;;;;;;;;;;7.50;55.70;;;;;;4976183;28;19920;-89
2022/10/12 02:26:16;;;;;;;;;;;7.50;55.80;;;;;;4976638;28;19940;-87
2022/10/12 02:28:42;;;;;;;;;;;7.50;55.90;;;;;;4994861;28;19917;-87
2022/10/12 02:31:16;;;;;;;;;;;7.50;55.90;;;;;;4991636;28;23551;-86
2022/10/12 02:33:45;;;;;;;;;;;7.50;56.10;;;;;;4975569;28;19965;-87
2022/10/12 02:36:24;;;;;;;;;;;7.50;56.10;;;;;;4998194;28;19922;-88
2022/10/12 02:39:07;;;;;;;;;;;7.50;56.10;;;;;;4975174;28;20020;-90
2022/10/12 02:41:37;;;;;;;;;;;7.50;56.10;;;;;;4988584;28;19924;-87
2022/10/12 02:44:05;;;;;;;;;;;7.40;56.10;;;;;;4974036;28;19917;-90
2022/10/12 02:46:32;;;;;;;;;;;7.40;56.10;;;;;;4976170;28;19949;-87
2022/10/12 02:48:58;;;;;;;;;;;7.30;56.10;;;;;;4993304;28;19914;-85
2022/10/12 02:51:26;;;;;;;;;;;7.30;56.10;;;;;;4991540;28;20008;-87
2022/10/12 02:53:52;;;;;;;;;;;7.30;56.00;;;;;;4995781;28;19914;-87
2022/10/12 02:56:17;;;;;;;;;;;7.30;56.10;;;;;;4981429;28;19929;-90
2022/10/12 02:58:44;;;;;;;;;;;7.30;56.30;;;;;;4988898;28;20554;-90
2022/10/12 03:01:10;;;;;;;;;;;7.30;56.30;;;;;;4982121;28;19917;-85
2022/10/12 03:03:36;;;;;;;;;;;7.30;56.30;;;;;;4970791;28;19920;-88
2022/10/12 03:06:02;;;;;;;;;;;7.30;56.40;;;;;;4975572;28;19918;-87
2022/10/12 03:08:28;;;;;;;;;;;7.30;56.30;;;;;;4976921;28;19921;-88
2022/10/12 03:10:53;;;;;;;;;;;7.20;56.30;;;;;;4992604;28;20017;-90
2022/10/12 03:13:19;;;;;;;;;;;7.20;56.40;;;;;;4975695;28;19968;-87
2022/10/12 03:15:44;;;;;;;;;;;7.20;56.50;;;;;;4992471;28;19926;-91
2022/10/12 03:18:10;;;;;;;;;;;7.20;56.60;;;;;;4994319;28;20375;-85
2022/10/12 03:20:35;;;;;;;;;;;7.20;56.60;;;;;;4975715;28;19918;-92
2022/10/12 03:23:01;;;;;;;;;;;7.20;56.70;;;;;;4966408;28;20399;-87
2022/10/12 03:25:26;;;;;;;;;;;7.20;56.70;;;;;;4976686;28;19918;-88
2022/10/12 03:27:52;;;;;;;;;;;7.20;56.80;;;;;;4993312;28;19910;-85
2022/10/12 03:30:17;;;;;;;;;;;7.20;56.90;;;;;;4994549;28;19925;-91
2022/10/12 03:32:43;;;;;;;;;;;7.20;56.90;;;;;;4974865;28;19910;-88
2022/10/12 03:35:09;;;;;;;;;;;7.20;56.90;;;;;;4973443;28;20492;-86
2022/10/12 03:37:35;;;;;;;;;;;7.20;56.90;;;;;;4965889;28;20015;-88
2022/10/12 03:40:01;;;;;;;;;;;7.10;56.80;;;;;;4976600;28;19918;-89
2022/10/12 03:42:26;;;;;;;;;;;7.10;56.70;;;;;;4999962;28;19968;-87
2022/10/12 03:44:52;;;;;;;;;;;7.10;56.80;;;;;;4977058;28;19913;-87
2022/10/12 03:47:17;;;;;;;;;;;7.00;56.90;;;;;;4975454;28;19918;-88
2022/10/12 03:49:43;;;;;;;;;;;7.00;57.10;;;;;;4989462;28;19922;-85
2022/10/12 03:52:08;;;;;;;;;;;7.00;57.10;;;;;;4974442;28;19921;-90
2022/10/12 03:54:34;;;;;;;;;;;6.90;57.00;;;;;;4991044;28;19922;-88
2022/10/12 03:56:59;;;;;;;;;;;6.90;57.00;;;;;;4984745;28;19964;-88
2022/10/12 03:59:25;;;;;;;;;;;6.90;57.00;;;;;;4986499;28;19915;-90
2022/10/12 04:01:50;;;;;;;;;;;6.90;57.00;;;;;;4990070;28;20400;-86
2022/10/12 04:04:16;;;;;;;;;;;6.90;56.90;;;;;;4962080;28;20435;-85
2022/10/12 04:06:41;;;;;;;;;;;6.80;56.90;;;;;;4972983;28;20669;-90
2022/10/12 04:09:07;;;;;;;;;;;6.80;56.90;;;;;;4963660;28;19914;-88
2022/10/12 04:11:33;;;;;;;;;;;6.80;56.90;;;;;;4991701;28;19933;-84
2022/10/12 04:13:58;;;;;;;;;;;6.70;56.90;;;;;;4997545;28;19953;-86
2022/10/12 04:16:24;;;;;;;;;;;6.80;57.00;;;;;;4981891;28;19922;-87
2022/10/12 04:18:49;;;;;;;;;;;6.70;57.10;;;;;;4999791;28;19953;-89
2022/10/12 04:21:15;;;;;;;;;;;6.80;57.10;;;;;;4995676;28;19973;-90
2022/10/12 04:23:41;;;;;;;;;;;6.70;57.10;;;;;;4976332;28;19914;-89
2022/10/12 04:26:07;;;;;;;;;;;6.70;57.00;;;;;;4977962;28;19918;-87
2022/10/12 04:28:32;;;;;;;;;;;6.70;57.10;;;;;;4972316;28;19914;-89
2022/10/12 04:30:58;;;;;;;;;;;6.70;57.20;;;;;;4982002;28;20360;-90
2022/10/12 04:33:23;;;;;;;;;;;6.70;57.30;;;;;;4972928;28;19949;-89
2022/10/12 04:35:49;;;;;;;;;;;6.70;57.30;;;;;;4977877;28;20116;-90
2022/10/12 04:38:15;;;;;;;;;;;6.60;57.30;;;;;;4961711;28;19914;-88
2022/10/12 04:40:44;;;;;;;;;;;6.60;57.30;;;;;;4975710;28;19942;-88
2022/10/12 04:43:09;;;;;;;;;;;6.60;57.40;;;;;;4976663;28;19915;-89
2022/10/12 04:45:35;;;;;;;;;;;6.60;57.50;;;;;;4993010;28;19967;-90
2022/10/12 04:48:00;;;;;;;;;;;6.60;57.40;;;;;;4995429;28;19918;-90
2022/10/12 04:50:26;;;;;;;;;;;6.50;57.40;;;;;;4994628;28;20285;-90
2022/10/12 04:52:52;;;;;;;;;;;6.50;57.40;;;;;;4978065;28;19926;-88
2022/10/12 04:55:17;;;;;;;;;;;6.50;57.30;;;;;;4998905;28;20288;-88
2022/10/12 04:57:43;;;;;;;;;;;6.50;57.20;;;;;;4996660;28;19928;-89
2022/10/12 05:00:09;;;;;;;;;;;6.50;57.20;;;;;;4997696;28;19918;-86
2022/10/12 05:02:34;;;;;;;;;;;6.40;57.30;;;;;;4996150;28;20289;-92
2022/10/12 05:05:00;;;;;;;;;;;6.50;57.30;;;;;;4979905;28;20269;-88
2022/10/12 05:07:25;;;;;;;;;;;6.40;57.20;;;;;;4977665;28;20020;-89
2022/10/12 05:09:51;;;;;;;;;;;6.40;57.20;;;;;;4977917;28;20373;-90
2022/10/12 05:12:16;;;;;;;;;;;6.40;57.30;;;;;;4976974;28;19926;-90
2022/10/12 05:14:43;;;;;;;;;;;6.40;57.40;;;;;;4980188;28;20009;-90
2022/10/12 05:17:09;;;;;;;;;;;6.40;57.50;;;;;;4976994;28;20013;-90
2022/10/12 05:19:34;;;;;;;;;;;6.40;57.50;;;;;;4978549;28;19925;-88
2022/10/12 05:22:00;;;;;;;;;;;6.30;57.40;;;;;;4977865;28;20357;-90
2022/10/12 05:24:25;;;;;;;;;;;6.30;57.40;;;;;;4995640;28;20100;-90
2022/10/12 05:26:51;;;;;;;;;;;6.30;57.40;;;;;;4977329;28;20000;-87
2022/10/12 05:29:16;;;;;;;;;;;6.30;57.40;;;;;;4977084;28;19929;-85
2022/10/12 05:31:42;;;;;;;;;;;6.30;57.60;;;;;;4978242;28;20276;-90
2022/10/12 05:34:07;;;;;;;;;;;6.30;57.70;;;;;;4977689;28;19918;-90
2022/10/12 05:36:33;;;;;;;;;;;6.30;57.80;;;;;;4978591;28;19910;-88
2022/10/12 05:38:58;;;;;;;;;;;6.20;57.90;;;;;;4994500;28;19933;-88
2022/10/12 05:41:24;;;;;;;;;;;6.20;58.00;;;;;;4978075;28;20008;-86
2022/10/12 05:43:49;;;;;;;;;;;6.30;58.10;;;;;;4978560;28;20020;-88
2022/10/12 05:46:15;;;;;;;;;;;6.30;58.10;;;;;;4994625;28;19916;-87
2022/10/12 05:48:40;;;;;;;;;;;6.30;58.00;;;;;;4998888;28;19921;-85
2022/10/12 05:51:06;;;;;;;;;;;6.30;58.00;;;;;;4978274;28;19932;-88
2022/10/12 05:53:31;;;;;;;;;;;6.30;58.10;;;;;;4994551;28;19925;-86
2022/10/12 05:55:58;;;;;;;;;;;6.40;58.70;;;;;;4996661;28;19925;-90
2022/10/12 05:58:24;;;;;;;;;;;6.50;59.40;;;;;;4978243;28;20191;-85
2022/10/12 06:00:49;;;;;;;;;;;6.60;59.90;;;;;;4993954;28;20064;-86
2022/10/12 06:03:15;;;;;;;;;;;6.70;60.30;;;;;;4976423;28;20361;-89
2022/10/12 06:05:41;;;;;;;;;;;6.90;60.60;;;;;;4975474;28;19921;-89
2022/10/12 06:08:07;;;;;;;;;;;7.10;60.80;;;;;;4968908;28;20256;-88
2022/10/12 06:10:34;;;;;;;;;;;7.30;60.70;;;;;;4974994;28;19922;-85
2022/10/12 06:12:59;;;;;;;;;;;7.40;60.60;;;;;;4978651;28;19969;-87
2022/10/12 06:15:25;;;;;;;;;;;7.60;60.90;;;;;;4976445;28;20020;-85
2022/10/12 06:17:50;;;;;;;;;;;7.80;61.10;;;;;;4975789;28;19925;-88
2022/10/12 06:20:16;;;;;;;;;;;8.00;61.40;;;;;;4994534;28;20743;-89
2022/10/12 06:22:41;;;;;;;;;;;8.30;62.00;;;;;;4975572;28;20564;-86
2022/10/12 06:25:07;;;;;;;;;;;8.60;62.20;;;;;;4975923;28;19914;-85
2022/10/12 06:27:33;;;;;;;;;;;8.90;62.40;;;;;;4992930;28;19918;-87
2022/10/12 06:29:58;;;;;;;;;;;9.30;62.60;;;;;;4956921;28;20132;-88
2022/10/12 06:32:24;;;;;;;;;;;9.50;62.90;;;;;;4978606;28;19918;-85
2022/10/12 06:34:49;;;;;;;;;;;9.90;63.60;;;;;;4992125;28;19922;-85
2022/10/12 06:37:15;;;;;;;;;;;10.30;64.80;;;;;;4975597;28;19922;-87
2022/10/12 06:39:41;;;;;;;;;;;10.80;65.60;;;;;;5003973;28;19914;-89
2022/10/12 06:42:07;;;;;;;;;;;11.30;66.10;;;;;;4984339;28;19961;-87
2022/10/12 06:44:33;;;;;;;;;;;11.90;65.80;;;;;;4972157;28;19918;-89
2022/10/12 06:46:58;;;;;;;;;;;12.40;65.60;;;;;;4990731;28;19925;-88
2022/10/12 06:49:24;;;;;;;;;;;13.00;65.90;;;;;;4972393;28;20155;-88
2022/10/12 06:51:50;;;;;;;;;;;13.60;65.90;;;;;;4986011;28;20003;-86
2022/10/12 06:54:15;;;;;;;;;;;14.20;65.50;;;;;;4989052;28;20282;-86
2022/10/12 06:56:42;;;;;;;;;;;14.70;65.10;;;;;;4971162;28;19914;-86
2022/10/12 06:59:09;;;;;;;;;;;15.30;64.50;;;;;;4989951;28;20342;-87
2022/10/12 07:01:35;;;;;;;;;;;15.80;64.60;;;;;;4972093;28;19932;-88
2022/10/12 07:04:00;;;;;;;;;;;16.40;64.60;;;;;;4989564;28;19922;-89
2022/10/12 07:06:26;;;;;;;;;;;17.00;64.30;;;;;;4989480;28;19932;-86
2022/10/12 07:08:52;;;;;;;;;;;17.60;64.00;;;;;;4972855;28;19922;-88
2022/10/12 07:11:18;;;;;;;;;;;18.10;63.80;;;;;;4989958;28;19922;-86
2022/10/12 07:13:43;;;;;;;;;;;18.60;63.30;;;;;;4973104;28;19922;-87
2022/10/12 07:16:09;;;;;;;;;;;18.90;62.20;;;;;;4989909;28;19951;-87
2022/10/12 07:18:34;;;;;;;;;;;19.30;62.00;;;;;;4975105;28;19928;-88
2022/10/12 07:21:01;;;;;;;;;;;19.70;61.40;;;;;;4989945;28;20332;-86
2022/10/12 07:23:27;;;;;;;;;;;19.80;60.40;;;;;;4989552;28;20202;-90
2022/10/12 07:25:53;;;;;;;;;;;19.80;59.20;;;;;;4990398;28;20257;-88
2022/10/12 07:28:19;;;;;;;;;;;19.60;57.60;;;;;;4990288;28;20153;-86
2022/10/12 07:30:44;;;;;;;;;;;19.20;56.00;;;;;;4972571;28;19914;-89
2022/10/12 07:33:10;;;;;;;;;;;18.80;55.30;;;;;;4989963;28;20365;-89
2022/10/12 07:35:36;;;;;;;;;;;18.40;55.00;;;;;;4973665;28;19922;-88
2022/10/12 07:38:01;;;;;;;;;;;18.00;54.80;;;;;;4971511;28;20353;-88
2022/10/12 07:40:27;;;;;;;;;;;17.70;55.00;;;;;;4971320;28;19910;-87
2022/10/12 07:42:53;;;;;;;;;;;17.30;57.20;;;;;;4988573;28;19929;-88
2022/10/12 07:45:19;;;;;;;;;;;17.40;59.80;;;;;;4972387;28;20009;-84
2022/10/12 07:47:45;;;;;;;;;;;17.60;61.10;;;;;;4991892;28;19922;-89
2022/10/12 07:50:11;;;;;;;;;;;18.00;62.80;;;;;;4975142;28;19913;-89
2022/10/12 07:52:36;;;;;;;;;;;18.50;63.30;;;;;;4990807;28;20377;-90
2022/10/12 07:55:02;;;;;;;;;;;19.10;63.70;;;;;;4989203;28;19922;-84
2022/10/12 07:57:28;;;;;;;;;;;19.70;63.90;;;;;;4971043;28;19921;-86
2022/10/12 07:59:53;;;;;;;;;;;20.20;63.90;;;;;;4971213;28;19956;-88
2022/10/12 08:02:19;;;;;;;;;;;20.80;63.60;;;;;;4970922;28;19931;-89
2022/10/12 08:04:44;;;;;;;;;;;21.20;62.80;;;;;;4989995;28;19932;-86
2022/10/12 08:07:10;;;;;;;;;;;21.60;62.30;;;;;;4971400;28;20003;-88
2022/10/12 08:09:35;;;;;;;;;;;22.00;62.00;;;;;;4989799;28;19910;-86
2022/10/12 08:12:01;;;;;;;;;;;22.30;61.60;;;;;;4972916;28;19952;-86
2022/10/12 08:14:27;;;;;;;;;;;22.60;61.20;;;;;;4990412;28;19922;-86
2022/10/12 08:16:52;;;;;;;;;;;22.90;60.50;;;;;;4990703;28;19937;-89
2022/10/12 08:19:18;;;;;;;;;;;23.20;59.30;;;;;;4971211;28;19929;-88
2022/10/12 08:21:44;;;;;;;;;;;23.50;59.50;;;;;;4971277;28;19962;-89
2022/10/12 08:24:10;;;;;;;;;;;23.80;60.30;;;;;;4971893;28;19949;-89
2022/10/12 08:26:36;;;;;;;;;;;24.20;59.70;;;;;;4972257;28;20216;-89
2022/10/12 08:29:03;;;;;;;;;;;24.40;58.60;;;;;;4972593;28;20014;-88
2022/10/12 08:31:28;;;;;;;;;;;24.70;58.70;;;;;;4972651;28;19918;-86
2022/10/12 08:33:55;;;;;;;;;;;24.90;58.10;;;;;;4976384;28;19925;-90
2022/10/12 08:36:21;;;;;;;;;;;25.30;59.20;;;;;;4972260;28;20360;-88
2022/10/12 08:38:51;;;;;;;;;;;25.50;59.20;;;;;;4989095;28;19929;-90
2022/10/12 08:41:20;;;;;;;;;;;25.80;59.20;;;;;;4972316;28;19928;-89
2022/10/12 08:44:00;;;;;;;;;;;26.20;58.70;;;;;;5007185;28;19921;-88
2022/10/12 08:46:28;;;;;;;;;;;26.50;58.80;;;;;;4989084;28;20055;-88
2022/10/12 08:48:53;;;;;;;;;;;26.80;58.70;;;;;;4969087;28;19929;-85
2022/10/12 08:51:21;;;;;;;;;;;27.10;57.60;;;;;;4982658;28;19922;-88
2022/10/12 08:53:53;;;;;;;;;;;27.40;57.20;;;;;;5011308;28;19924;-87
2022/10/12 08:56:19;;;;;;;;;;;27.70;56.60;;;;;;5000328;28;19929;-88
2022/10/12 08:58:46;;;;;;;;;;;27.90;55.50;;;;;;4996876;28;19969;-90
2022/10/12 09:01:21;;;;;;;;;;;28.10;55.70;;;;;;4994406;28;19922;-88
2022/10/12 09:04:06;;;;;;;;;;;28.20;54.10;;;;;;4993356;28;20344;-89
2022/10/12 09:06:45;;;;;;;;;;;28.20;51.50;;;;;;4975814;28;19917;-90
2022/10/12 09:09:32;;;;;;;;;;;28.20;51.00;;;;;;4993407;28;19973;-89
2022/10/12 09:12:09;;;;;;;;;;;28.20;51.50;;;;;;4975297;28;19944;-90
2022/10/12 09:14:37;;;;;;;;;;;28.30;51.30;;;;;;4975607;28;19925;-88
2022/10/12 09:17:06;;;;;;;;;;;28.40;50.00;;;;;;4975869;28;19910;-88
2022/10/12 09:19:35;;;;;;;;;;;28.40;50.00;;;;;;4992042;28;20347;-88
2022/10/12 09:22:01;;;;;;;;;;;28.40;49.20;;;;;;4974216;28;19921;-87
2022/10/12 09:24:29;;;;;;;;;;;28.40;48.50;;;;;;4974823;28;20646;-87
2022/10/12 09:26:57;;;;;;;;;;;28.30;47.70;;;;;;4974844;28;20596;-88
2022/10/12 09:29:27;;;;;;;;;;;28.30;46.10;;;;;;4974156;28;19980;-88
2022/10/12 09:32:08;;;;;;;;;;;28.20;44.90;;;;;;4975655;28;19984;-86
2022/10/12 09:34:34;;;;;;;;;;;27.90;42.90;;;;;;4991602;28;19914;-89
2022/10/12 09:37:01;;;;;;;;;;;27.50;42.00;;;;;;4996060;28;19975;-88
2022/10/12 09:39:34;;;;;;;;;;;27.40;42.30;;;;;;4974323;28;20276;-89
2022/10/12 09:42:00;;;;;;;;;;;27.30;42.00;;;;;;4993904;28;19965;-86
2022/10/12 09:44:30;;;;;;;;;;;27.20;42.80;;;;;;4993161;28;20041;-89
2022/10/12 09:47:00;;;;;;;;;;;27.30;43.20;;;;;;4976212;28;20127;-87
2022/10/12 09:49:39;;;;;;;;;;;27.50;41.50;;;;;;4994347;28;20432;-86
2022/10/12 09:52:05;;;;;;;;;;;27.70;42.60;;;;;;4977872;28;19914;-90
2022/10/12 09:54:31;;;;;;;;;;;28.10;43.40;;;;;;4977115;28;19989;-88
2022/10/12 09:56:57;;;;;;;;;;;28.50;42.20;;;;;;4992496;28;19914;-87
2022/10/12 09:59:34;;;;;;;;;;;28.90;41.60;;;;;;4976030;28;19909;-88
2022/10/12 10:02:12;;;;;;;;;;;29.30;39.90;;;;;;4994711;28;19918;-86
2022/10/12 10:04:38;;;;;;;;;;;29.70;38.50;;;;;;4974030;28;20313;-88
2022/10/12 10:07:22;;;;;;;;;;;29.90;36.10;;;;;;4999554;28;19985;-90
2022/10/12 10:10:07;;;;;;;;;;;30.20;36.40;;;;;;4974584;28;19925;-90
2022/10/12 10:12:33;;;;;;;;;;;30.60;35.80;;;;;;4974297;28;20373;-90
2022/10/12 10:15:00;;;;;;;;;;;30.60;33.80;;;;;;4993575;28;20609;-91
2022/10/12 10:17:30;;;;;;;;;;;30.40;33.50;;;;;;4994212;28;20294;-89
2022/10/12 10:20:04;;;;;;;;;;;30.30;32.90;;;;;;4992104;28;19936;-93
2022/10/12 10:22:30;;;;;;;;;;;30.20;32.80;;;;;;4991273;28;19925;-89
2022/10/12 10:24:57;;;;;;;;;;;30.10;32.40;;;;;;4979306;28;19914;-84
2022/10/12 10:27:38;;;;;;;;;;;30.00;31.80;;;;;;4972861;28;19929;-87
2022/10/12 10:30:16;;;;;;;;;;;29.70;31.60;;;;;;4990013;28;19953;-86
2022/10/12 10:32:42;;;;;;;;;;;29.40;31.60;;;;;;4972754;28;19926;-86
2022/10/12 10:35:11;;;;;;;;;;;29.50;32.50;;;;;;4995331;28;19934;-88
2022/10/12 10:37:41;;;;;;;;;;;29.80;33.10;;;;;;4992957;28;19922;-86
2022/10/12 10:40:15;;;;;;;;;;;30.10;32.50;;;;;;4989288;28;19918;-83
2022/10/12 10:42:54;;;;;;;;;;;30.30;31.20;;;;;;4975850;28;19934;-89
2022/10/12 10:45:55;;;;;;;;;;;30.60;32.00;;;;;;4975713;28;19992;-87
2022/10/12 10:48:23;;;;;;;;;;;30.80;30.60;;;;;;4996712;28;20284;-84
2022/10/12 10:50:50;;;;;;;;;;;30.80;29.40;;;;;;5000864;28;19956;-87
2022/10/12 10:53:24;;;;;;;;;;;30.90;29.50;;;;;;4978077;28;19921;-88
2022/10/12 10:55:49;;;;;;;;;;;30.90;29.40;;;;;;4994311;28;20027;-87
2022/10/12 10:58:25;;;;;;;;;;;31.10;29.80;;;;;;4996445;28;20356;-90
2022/10/12 11:00:52;;;;;;;;;;;31.20;29.00;;;;;;4984262;28;19924;-87
2022/10/12 11:03:40;;;;;;;;;;;31.00;29.40;;;;;;5004253;28;20339;-89
2022/10/12 11:06:18;;;;;;;;;;;31.10;29.60;;;;;;4992505;28;19975;-90
2022/10/12 11:08:45;;;;;;;;;;;31.20;29.40;;;;;;5001925;28;19961;-87
2022/10/12 11:11:17;;;;;;;;;;;31.30;29.50;;;;;;4999496;28;19925;-90
2022/10/12 11:13:47;;;;;;;;;;;31.20;28.80;;;;;;5005372;28;20315;-88
2022/10/12 11:16:13;;;;;;;;;;;31.00;28.60;;;;;;4985870;28;19929;-90
2022/10/12 11:18:44;;;;;;;;;;;30.70;28.90;;;;;;4999361;28;20040;-90
2022/10/12 11:21:17;;;;;;;;;;;30.40;28.70;;;;;;4937766;28;20231;-89
2022/10/12 11:24:02;;;;;;;;;;;30.20;29.00;;;;;;4939231;28;19929;-90
2022/10/12 11:26:31;;;;;;;;;;;30.00;29.60;;;;;;4952538;28;20005;-87
2022/10/12 11:28:58;;;;;;;;;;;30.00;30.30;;;;;;4952125;28;19991;-89
2022/10/12 11:31:27;;;;;;;;;;;30.10;29.70;;;;;;4987916;28;19917;-89
2022/10/12 11:33:55;;;;;;;;;;;30.20;29.50;;;;;;4979884;28;19921;-89
2022/10/12 11:36:23;;;;;;;;;;;30.10;29.20;;;;;;4981529;28;19964;-90
2022/10/12 11:38:51;;;;;;;;;;;30.00;29.30;;;;;;4984665;28;19917;-89
2022/10/12 11:41:18;;;;;;;;;;;30.00;29.10;;;;;;5002589;28;19968;-89
2022/10/12 11:43:49;;;;;;;;;;;29.90;28.20;;;;;;4998569;28;19944;-88
2022/10/12 11:46:17;;;;;;;;;;;29.80;28.80;;;;;;4988560;28;20080;-86
2022/10/12 11:48:49;;;;;;;;;;;29.90;28.80;;;;;;5000193;28;19922;-88
2022/10/12 11:51:15;;;;;;;;;;;30.00;29.30;;;;;;4993519;28;19978;-86
2022/10/12 11:53:59;;;;;;;;;;;30.00;29.50;;;;;;4978026;28;19921;-90
2022/10/12 11:56:33;;;;;;;;;;;30.10;29.10;;;;;;4972129;28;19926;-88
2022/10/12 11:59:18;;;;;;;;;;;30.00;27.40;;;;;;4965656;28;19933;-90
2022/10/12 12:01:48;;;;;;;;;;;29.90;26.90;;;;;;4973162;28;20380;-88
2022/10/12 12:04:13;;;;;;;;;;;30.00;27.40;;;;;;4972856;28;19925;-89
2022/10/12 12:06:56;;;;;;;;;;;30.00;27.20;;;;;;4988568;28;19933;-89
2022/10/12 12:09:35;;;;;;;;;;;30.00;25.90;;;;;;4997267;28;20219;-88
2022/10/12 12:12:18;;;;;;;;;;;30.00;25.20;;;;;;4974019;28;20401;-87
2022/10/12 12:14:45;;;;;;;;;;;29.90;25.20;;;;;;4971535;28;20332;-89
2022/10/12 12:17:14;;;;;;;;;;;29.80;24.50;;;;;;4971808;28;20302;-88
2022/10/12 12:19:41;;;;;;;;;;;29.80;25.20;;;;;;5004650;28;20396;-86
2022/10/12 12:22:22;;;;;;;;;;;30.00;25.80;;;;;;4977122;28;19918;-90
2022/10/12 12:24:54;;;;;;;;;;;30.20;25.40;;;;;;4988498;28;19925;-87
2022/10/12 12:27:21;;;;;;;;;;;30.30;25.00;;;;;;4972202;28;19921;-87
2022/10/12 12:29:50;;;;;;;;;;;30.20;23.20;;;;;;4993292;28;19952;-89
2022/10/12 12:32:16;;;;;;;;;;;29.90;23.70;;;;;;4976292;28;19924;-89
2022/10/12 12:34:49;;;;;;;;;;;29.80;24.00;;;;;;4992487;28;19930;-88
2022/10/12 12:37:18;;;;;;;;;;;29.60;23.70;;;;;;4994672;28;19917;-90
2022/10/12 12:39:50;;;;;;;;;;;29.30;24.30;;;;;;4976311;28;19922;-89
2022/10/12 12:42:20;;;;;;;;;;;29.20;24.50;;;;;;4993308;28;19925;-87
2022/10/12 12:44:46;;;;;;;;;;;28.90;25.00;;;;;;4992681;28;20004;-87
2022/10/12 12:47:12;;;;;;;;;;;28.50;25.50;;;;;;4977019;28;19964;-87
2022/10/12 12:49:39;;;;;;;;;;;27.90;25.50;;;;;;4993293;28;19918;-89
2022/10/12 12:52:10;;;;;;;;;;;27.30;26.10;;;;;;4993276;28;19987;-89
2022/10/12 12:54:36;;;;;;;;;;;26.60;26.50;;;;;;4975330;28;19972;-90
2022/10/12 12:57:18;;;;;;;;;;;26.10;27.20;;;;;;4992267;28;19925;-88
2022/10/12 12:59:47;;;;;;;;;;;25.70;27.80;;;;;;4965720;28;19926;-89
2022/10/12 13:02:33;;;;;;;;;;;25.30;28.30;;;;;;4992606;28;20391;-88
2022/10/12 13:05:11;;;;;;;;;;;25.00;28.90;;;;;;4997231;28;19929;-90
2022/10/12 13:07:47;;;;;;;;;;;24.80;29.60;;;;;;4992830;28;19918;-92
2022/10/12 13:10:16;;;;;;;;;;;24.60;29.90;;;;;;4990746;28;19968;-89
2022/10/12 13:13:05;;;;;;;;;;;24.50;30.10;;;;;;4974298;28;19921;-91
2022/10/12 13:15:36;;;;;;;;;;;24.20;30.10;;;;;;4989002;28;19936;-87
2022/10/12 13:18:07;;;;;;;;;;;24.00;30.40;;;;;;4994028;28;19917;-89
2022/10/12 13:20:33;;;;;;;;;;;23.80;30.70;;;;;;5001281;28;19925;-88
2022/10/12 13:23:02;;;;;;;;;;;23.80;31.00;;;;;;4974183;28;20196;-89
2022/10/12 13:25:30;;;;;;;;;;;23.60;31.00;;;;;;4994117;28;19949;-89
2022/10/12 13:27:57;;;;;;;;;;;23.50;31.30;;;;;;4992923;28;20381;-88
2022/10/12 13:30:39;;;;;;;;;;;23.50;31.50;;;;;;4975122;28;19922;-89
2022/10/12 13:33:10;;;;;;;;;;;23.50;31.70;;;;;;4989084;28;20374;-91
2022/10/12 13:35:35;;;;;;;;;;;23.40;31.90;;;;;;4985303;28;20158;-90
2022/10/12 13:38:16;;;;;;;;;;;23.30;32.10;;;;;;4976397;28;19941;-88
2022/10/12 13:40:43;;;;;;;;;;;23.30;32.20;;;;;;4986987;28;19985;-87
2022/10/12 13:43:21;;;;;;;;;;;23.20;32.40;;;;;;4981002;28;19941;-89
2022/10/12 13:45:47;;;;;;;;;;;23.10;32.50;;;;;;4989912;28;19941;-87
2022/10/12 13:48:16;;;;;;;;;;;23.00;32.60;;;;;;4988636;28;20265;-87
2022/10/12 13:50:49;;;;;;;;;;;22.90;32.70;;;;;;4996883;28;20392;-89
2022/10/12 13:53:15;;;;;;;;;;;22.80;32.70;;;;;;4992349;28;20407;-89
2022/10/12 13:55:41;;;;;;;;;;;22.80;32.90;;;;;;4994246;28;19937;-89
2022/10/12 13:58:20;;;;;;;;;;;22.80;33.00;;;;;;4978716;28;19921;-89
2022/10/12 14:00:46;;;;;;;;;;;22.70;33.10;;;;;;4989697;28;19921;-86
2022/10/12 14:03:11;;;;;;;;;;;22.70;33.20;;;;;;4989545;28;19921;-89
2022/10/12 14:05:42;;;;;;;;;;;22.60;33.20;;;;;;4993889;28;19932;-90
2022/10/12 14:08:13;;;;;;;;;;;22.50;33.30;;;;;;4973428;28;19920;-89
2022/10/12 14:10:40;;;;;;;;;;;22.50;33.40;;;;;;5004458;28;19953;-89
2022/10/12 14:13:08;;;;;;;;;;;22.40;33.60;;;;;;4988962;28;19918;-87
2022/10/12 14:15:35;;;;;;;;;;;22.40;33.70;;;;;;4989842;28;19930;-92
2022/10/12 14:18:03;;;;;;;;;;;22.40;33.80;;;;;;4972629;28;19925;-87
2022/10/12 14:20:37;;;;;;;;;;;22.40;33.70;;;;;;4994133;28;20427;-89
2022/10/12 14:23:14;;;;;;;;;;;22.40;33.80;;;;;;5003471;28;19917;-90
2022/10/12 14:25:53;;;;;;;;;;;22.30;33.80;;;;;;4972318;28;19925;-88
2022/10/12 14:28:39;;;;;;;;;;;22.30;33.90;;;;;;4991678;28;20511;-87
2022/10/12 14:31:05;;;;;;;;;;;22.30;33.80;;;;;;4988486;28;19924;-89
2022/10/12 14:33:30;;;;;;;;;;;22.30;34.00;;;;;;4995227;28;20020;-90